createdAt,value
2023-01-19T00:01:12.389Z,25.06
2023-01-19T00:03:16.702Z,25.08
2023-01-19T00:05:21.218Z,25.11
2023-01-19T00:07:25.528Z,25.11
2023-01-19T00:09:29.986Z,25.1
2023-01-19T00:11:34.366Z,25.11
2023-01-19T00:13:38.700Z,25.09
2023-01-19T00:15:43.092Z,25.06
2023-01-19T00:17:47.812Z,25.07
2023-01-19T00:19:52.126Z,25.12
2023-01-19T00:21:56.567Z,25.11
2023-01-19T00:24:01.138Z,25.08
2023-01-19T00:26:05.510Z,25.08
2023-01-19T00:28:09.891Z,25.15
2023-01-19T00:30:14.230Z,25.18
2023-01-19T00:32:18.621Z,25.21
2023-01-19T00:34:22.944Z,25.19
2023-01-19T00:36:27.275Z,25.19
2023-01-19T00:38:31.633Z,25.2
2023-01-19T00:40:35.992Z,25.22
2023-01-19T00:42:40.348Z,25.2
2023-01-19T00:44:44.715Z,25.18
2023-01-19T00:46:49.087Z,25.16
2023-01-19T00:48:53.433Z,25.14
2023-01-19T00:50:57.794Z,25.14
2023-01-19T00:53:02.577Z,25.1
2023-01-19T00:55:07.431Z,25.11
2023-01-19T00:57:11.742Z,25.06
2023-01-19T00:59:16.175Z,25.07
2023-01-19T01:01:20.796Z,25.06
2023-01-19T01:03:50.294Z,25.06
2023-01-19T01:05:54.612Z,25.05
2023-01-19T01:07:58.985Z,25.03
2023-01-19T01:10:03.300Z,25.01
2023-01-19T01:12:07.621Z,24.98
2023-01-19T01:14:11.966Z,24.94
2023-01-19T01:16:16.617Z,24.94
2023-01-19T01:18:21.077Z,24.94
2023-01-19T01:20:25.539Z,24.93
2023-01-19T01:22:29.906Z,24.89
2023-01-19T01:24:34.372Z,24.89
2023-01-19T01:26:38.734Z,24.88
2023-01-19T01:28:43.134Z,24.87
2023-01-19T01:30:47.681Z,24.87
2023-01-19T01:32:52.044Z,24.88
2023-01-19T01:34:56.372Z,24.89
2023-01-19T01:37:00.765Z,24.87
2023-01-19T01:39:05.053Z,24.85
2023-01-19T01:41:09.398Z,24.83
2023-01-19T01:43:13.827Z,24.84
2023-01-19T01:45:18.196Z,24.81
2023-01-19T01:47:22.525Z,24.83
2023-01-19T01:49:26.855Z,24.83
2023-01-19T01:51:31.181Z,24.83
2023-01-19T01:53:35.517Z,24.83
2023-01-19T01:55:39.868Z,24.83
2023-01-19T01:57:44.406Z,24.85
2023-01-19T01:59:48.721Z,24.85
2023-01-19T02:01:53.114Z,24.85
2023-01-19T02:03:59.216Z,24.86
2023-01-19T02:06:03.556Z,24.86
2023-01-19T02:08:07.995Z,24.87
2023-01-19T02:10:12.483Z,24.86
2023-01-19T02:12:16.911Z,24.88
2023-01-19T02:14:21.239Z,24.89
2023-01-19T02:16:25.615Z,24.89
2023-01-19T02:18:30.137Z,24.9
2023-01-19T02:20:34.491Z,24.92
2023-01-19T02:22:38.820Z,24.9
2023-01-19T02:24:43.191Z,24.89
2023-01-19T02:26:47.558Z,24.89
2023-01-19T02:28:51.870Z,24.91
2023-01-19T02:30:56.257Z,24.88
2023-01-19T02:33:01.136Z,24.88
2023-01-19T02:35:06.422Z,24.88
2023-01-19T02:37:10.820Z,24.84
2023-01-19T02:39:15.148Z,24.86
2023-01-19T02:41:19.529Z,24.86
2023-01-19T02:43:23.886Z,24.87
2023-01-19T02:45:28.219Z,24.89
2023-01-19T02:47:32.640Z,24.89
2023-01-19T02:49:36.950Z,24.91
2023-01-19T02:51:41.342Z,24.89
2023-01-19T02:53:45.680Z,24.88
2023-01-19T02:55:50.069Z,24.87
2023-01-19T02:57:54.534Z,24.88
2023-01-19T02:59:58.905Z,24.88
2023-01-19T03:02:03.419Z,24.91
2023-01-19T03:04:08.129Z,24.91
2023-01-19T03:06:12.464Z,24.9
2023-01-19T03:08:16.872Z,24.87
2023-01-19T03:10:21.230Z,24.92
2023-01-19T03:12:25.546Z,24.92
2023-01-19T03:14:29.986Z,24.92
2023-01-19T03:16:34.486Z,24.95
2023-01-19T03:18:39.032Z,24.96
2023-01-19T03:20:43.373Z,24.92
2023-01-19T03:22:47.713Z,24.95
2023-01-19T03:24:52.039Z,24.92
2023-01-19T03:26:56.329Z,24.88
2023-01-19T03:29:00.640Z,24.9
2023-01-19T03:31:05.038Z,24.87
2023-01-19T03:33:09.638Z,24.88
2023-01-19T03:35:13.981Z,24.87
2023-01-19T03:37:18.697Z,24.85
2023-01-19T03:39:23.239Z,24.85
2023-01-19T03:41:27.612Z,24.88
2023-01-19T03:43:31.940Z,24.9
2023-01-19T03:45:36.373Z,24.9
2023-01-19T03:47:40.687Z,24.9
2023-01-19T03:49:45.065Z,24.92
2023-01-19T03:51:49.400Z,24.92
2023-01-19T03:53:53.722Z,24.93
2023-01-19T03:55:58.140Z,24.9
2023-01-19T03:58:02.432Z,24.89
2023-01-19T04:00:06.780Z,24.88
2023-01-19T04:02:11.189Z,24.88
2023-01-19T04:04:15.742Z,24.88
2023-01-19T04:06:20.069Z,24.88
2023-01-19T04:08:24.449Z,24.9
2023-01-19T04:10:28.760Z,24.91
2023-01-19T04:12:33.062Z,24.91
2023-01-19T04:14:37.426Z,24.93
2023-01-19T04:16:41.755Z,24.93
2023-01-19T04:18:46.100Z,24.91
2023-01-19T04:20:50.425Z,24.91
2023-01-19T04:22:54.817Z,24.89
2023-01-19T04:24:59.164Z,24.89
2023-01-19T04:27:03.501Z,24.86
2023-01-19T04:29:07.790Z,24.87
2023-01-19T04:31:12.321Z,24.88
2023-01-19T04:33:17.048Z,24.85
2023-01-19T04:35:21.370Z,24.86
2023-01-19T04:37:25.705Z,24.92
2023-01-19T04:39:30.020Z,24.93
2023-01-19T04:41:34.383Z,24.95
2023-01-19T04:43:38.785Z,24.95
2023-01-19T04:45:43.169Z,24.96
2023-01-19T04:49:50.518Z,24.95
2023-01-19T04:51:54.843Z,24.95
2023-01-19T04:53:59.233Z,24.96
2023-01-19T04:56:03.732Z,24.95
2023-01-19T04:58:08.490Z,24.96
2023-01-19T05:00:12.807Z,24.94
2023-01-19T05:02:17.126Z,24.96
2023-01-19T05:04:21.731Z,24.96
2023-01-19T05:06:26.130Z,24.94
2023-01-19T05:08:30.449Z,24.9
2023-01-19T05:10:35.046Z,24.93
2023-01-19T05:12:39.380Z,24.92
2023-01-19T05:14:43.695Z,24.94
2023-01-19T05:16:48.005Z,24.95
2023-01-19T05:18:52.390Z,24.93
2023-01-19T05:20:56.746Z,24.87
2023-01-19T05:23:01.435Z,24.87
2023-01-19T05:25:06.754Z,24.82
2023-01-19T05:27:11.144Z,24.84
2023-01-19T05:29:15.449Z,24.8
2023-01-19T05:31:19.900Z,24.81
2023-01-19T05:33:24.726Z,24.79
2023-01-19T05:35:35.496Z,24.81
2023-01-19T05:37:40.355Z,24.79
2023-01-19T05:39:44.690Z,24.82
2023-01-19T05:41:49.010Z,24.78
2023-01-19T05:43:53.388Z,24.76
2023-01-19T05:45:57.735Z,24.75
2023-01-19T05:48:02.100Z,24.72
2023-01-19T05:50:06.456Z,24.72
2023-01-19T05:52:10.796Z,24.73
2023-01-19T05:54:15.125Z,24.79
2023-01-19T05:56:19.451Z,24.8
2023-01-19T05:58:23.975Z,24.8
2023-01-19T06:00:28.383Z,24.81
2023-01-19T06:02:32.729Z,24.8
2023-01-19T06:04:37.124Z,24.74
2023-01-19T06:06:41.434Z,24.76
2023-01-19T06:08:45.791Z,24.77
2023-01-19T06:10:50.179Z,24.76
2023-01-19T06:12:54.481Z,24.77
2023-01-19T06:14:58.834Z,24.8
2023-01-19T06:17:03.152Z,24.8
2023-01-19T06:19:07.770Z,24.78
2023-01-19T06:21:12.342Z,24.76
2023-01-19T06:23:16.853Z,24.77
2023-01-19T06:25:21.201Z,24.78
2023-01-19T06:27:25.522Z,24.78
2023-01-19T06:29:29.888Z,24.76
2023-01-19T06:31:34.343Z,24.75
2023-01-19T06:33:38.836Z,24.74
2023-01-19T06:35:43.225Z,24.74
2023-01-19T06:37:47.542Z,24.73
2023-01-19T06:39:51.892Z,24.73
2023-01-19T06:41:56.225Z,24.71
2023-01-19T06:44:00.612Z,24.71
2023-01-19T06:46:05.072Z,24.68
2023-01-19T06:48:09.600Z,24.67
2023-01-19T06:50:13.952Z,24.68
2023-01-19T06:52:18.292Z,24.65
2023-01-19T06:54:22.742Z,24.67
2023-01-19T06:56:27.063Z,24.67
2023-01-19T06:58:32.200Z,24.66
2023-01-19T07:00:36.713Z,24.64
2023-01-19T07:02:41.274Z,24.67
2023-01-19T07:04:46.294Z,24.68
2023-01-19T07:06:50.601Z,24.67
2023-01-19T07:08:54.939Z,24.66
2023-01-19T07:11:22.552Z,24.67
2023-01-19T07:13:36.401Z,24.67
2023-01-19T07:15:40.954Z,24.67
2023-01-19T07:17:45.308Z,24.67
2023-01-19T07:19:49.955Z,24.67
2023-01-19T07:21:54.306Z,24.65
2023-01-19T07:23:58.666Z,24.64
2023-01-19T07:26:03.163Z,24.63
2023-01-19T07:28:07.497Z,24.63
2023-01-19T07:30:11.855Z,24.63
2023-01-19T07:32:16.208Z,24.59
2023-01-19T07:34:20.638Z,24.62
2023-01-19T07:36:25.031Z,24.6
2023-01-19T07:38:29.421Z,24.6
2023-01-19T07:40:33.767Z,24.61
2023-01-19T07:42:38.116Z,24.61
2023-01-19T07:44:42.549Z,24.61
2023-01-19T07:46:46.984Z,24.6
2023-01-19T07:48:51.328Z,24.58
2023-01-19T07:50:55.671Z,24.56
2023-01-19T07:53:00.334Z,24.56
2023-01-19T07:55:05.950Z,24.57
2023-01-19T07:57:10.530Z,24.58
2023-01-19T07:59:14.936Z,24.57
2023-01-19T08:01:19.487Z,24.56
2023-01-19T08:03:24.158Z,24.55
2023-01-19T08:05:28.619Z,24.53
2023-01-19T08:07:32.975Z,24.53
2023-01-19T08:09:37.334Z,24.51
2023-01-19T08:11:41.699Z,24.49
2023-01-19T08:13:46.071Z,24.5
2023-01-19T08:15:50.507Z,24.47
2023-01-19T08:17:55.118Z,24.49
2023-01-19T08:19:59.463Z,24.48
2023-01-19T08:22:03.848Z,24.48
2023-01-19T08:24:08.289Z,24.48
2023-01-19T08:26:12.819Z,24.49
2023-01-19T08:28:17.235Z,24.47
2023-01-19T08:30:21.660Z,24.47
2023-01-19T08:32:26.143Z,24.5
2023-01-19T08:34:30.743Z,24.48
2023-01-19T08:36:35.303Z,24.44
2023-01-19T08:38:39.715Z,24.48
2023-01-19T08:40:44.142Z,24.47
2023-01-19T08:42:48.628Z,24.46
2023-01-19T08:44:57.997Z,24.45
2023-01-19T08:47:02.845Z,24.44
2023-01-19T08:49:07.273Z,24.43
2023-01-19T08:51:11.600Z,24.42
2023-01-19T08:53:15.993Z,24.45
2023-01-19T08:55:20.396Z,24.46
2023-01-19T08:57:24.725Z,24.44
2023-01-19T08:59:29.159Z,24.45
2023-01-19T09:01:33.642Z,24.45
2023-01-19T09:03:38.625Z,24.43
2023-01-19T09:05:43.051Z,24.43
2023-01-19T09:07:47.584Z,24.39
2023-01-19T09:09:51.986Z,24.39
2023-01-19T09:11:56.292Z,24.37
2023-01-19T09:14:00.681Z,24.35
2023-01-19T09:16:05.107Z,24.29
2023-01-19T09:18:09.637Z,24.33
2023-01-19T09:20:13.963Z,24.33
2023-01-19T09:22:18.286Z,24.35
2023-01-19T09:24:22.604Z,24.34
2023-01-19T09:26:26.995Z,24.35
2023-01-19T09:28:31.332Z,24.34
2023-01-19T09:30:35.768Z,24.33
2023-01-19T09:32:40.282Z,24.32
2023-01-19T09:34:44.765Z,24.3
2023-01-19T09:36:49.145Z,24.34
2023-01-19T09:38:53.507Z,24.36
2023-01-19T09:40:57.897Z,24.37
2023-01-19T09:43:02.242Z,24.38
2023-01-19T09:45:06.697Z,24.37
2023-01-19T09:47:13.304Z,24.37
2023-01-19T09:49:17.696Z,24.37
2023-01-19T09:51:22.095Z,24.36
2023-01-19T09:53:26.469Z,24.37
2023-01-19T09:55:30.846Z,24.39
2023-01-19T09:57:35.221Z,24.36
2023-01-19T09:59:39.554Z,24.38
2023-01-19T10:01:43.922Z,24.35
2023-01-19T10:03:48.525Z,24.38
2023-01-19T10:05:52.827Z,24.39
2023-01-19T10:07:57.321Z,24.44
2023-01-19T10:10:02.776Z,24.47
2023-01-19T10:12:07.165Z,24.52
2023-01-19T10:14:11.515Z,24.56
2023-01-19T10:16:15.908Z,24.59
2023-01-19T10:18:20.587Z,24.6
2023-01-19T10:20:24.903Z,24.63
2023-01-19T10:22:29.230Z,24.63
2023-01-19T10:24:33.770Z,24.64
2023-01-19T10:26:38.130Z,24.66
2023-01-19T10:28:42.611Z,24.71
2023-01-19T10:30:47.061Z,24.72
2023-01-19T10:32:51.510Z,24.73
2023-01-19T10:34:56.034Z,24.75
2023-01-19T10:37:03.198Z,24.73
2023-01-19T10:39:07.927Z,24.73
2023-01-19T10:41:12.430Z,24.74
2023-01-19T10:43:17.006Z,24.8
2023-01-19T10:45:21.511Z,24.84
2023-01-19T10:47:26.256Z,24.88
2023-01-19T10:49:30.672Z,24.89
2023-01-19T10:51:35.192Z,24.92
2023-01-19T10:53:39.743Z,24.92
2023-01-19T10:55:44.214Z,24.96
2023-01-19T10:57:48.563Z,25.01
2023-01-19T10:59:53.035Z,25.04
2023-01-19T11:01:57.618Z,25.05
2023-01-19T11:04:02.784Z,25.08
2023-01-19T11:06:07.225Z,25.12
2023-01-19T11:08:11.621Z,25.12
2023-01-19T11:10:16.253Z,25.16
2023-01-19T11:12:21.036Z,25.19
2023-01-19T11:14:26.682Z,25.19
2023-01-19T11:16:31.081Z,25.19
2023-01-19T11:18:35.632Z,25.23
2023-01-19T11:20:40.004Z,25.24
2023-01-19T11:22:44.339Z,25.23
2023-01-19T11:24:51.265Z,25.21
2023-01-19T11:26:55.651Z,25.22
2023-01-19T11:29:00.120Z,25.21
2023-01-19T11:31:04.551Z,25.21
2023-01-19T11:33:09.100Z,25.19
2023-01-19T11:35:13.443Z,25.23
2023-01-19T11:37:17.798Z,25.25
2023-01-19T11:39:22.132Z,25.22
2023-01-19T11:41:26.523Z,25.25
2023-01-19T11:43:43.411Z,25.24
2023-01-19T11:45:53.085Z,25.25
2023-01-19T11:47:57.549Z,25.25
2023-01-19T11:50:02.446Z,25.23
2023-01-19T11:52:06.964Z,25.2
2023-01-19T11:54:11.278Z,25.21
2023-01-19T11:56:15.631Z,25.23
2023-01-19T11:58:19.975Z,25.24
2023-01-19T12:00:24.380Z,25.24
2023-01-19T12:02:28.777Z,25.27
2023-01-19T12:04:33.432Z,25.28
2023-01-19T12:06:37.778Z,25.31
2023-01-19T12:08:42.138Z,25.34
2023-01-19T12:10:46.517Z,25.37
2023-01-19T12:12:50.871Z,25.39
2023-01-19T12:14:55.292Z,25.37
2023-01-19T12:16:59.638Z,25.42
2023-01-19T12:19:04.009Z,25.44
2023-01-19T12:21:08.441Z,25.45
2023-01-19T12:23:12.826Z,25.46
2023-01-19T12:25:17.175Z,25.44
2023-01-19T12:27:21.644Z,25.44
2023-01-19T12:29:26.121Z,25.42
2023-01-19T12:31:30.747Z,25.43
2023-01-19T12:33:35.449Z,25.43
2023-01-19T12:35:39.962Z,25.41
2023-01-19T12:37:44.291Z,25.4
2023-01-19T12:39:48.748Z,25.41
2023-01-19T12:41:53.616Z,25.41
2023-01-19T12:43:57.977Z,25.4
2023-01-19T12:46:02.395Z,25.39
2023-01-19T12:48:06.957Z,25.36
2023-01-19T12:50:11.436Z,25.38
2023-01-19T12:52:15.799Z,25.37
2023-01-19T12:54:21.245Z,25.34
2023-01-19T12:56:25.739Z,25.33
2023-01-19T12:58:30.081Z,25.32
2023-01-19T13:00:34.436Z,25.33
2023-01-19T13:02:39.059Z,25.34
2023-01-19T13:04:43.706Z,25.32
2023-01-19T13:06:48.066Z,25.31
2023-01-19T13:08:52.528Z,25.29
2023-01-19T13:10:56.924Z,25.26
2023-01-19T13:13:01.310Z,25.23
2023-01-19T13:15:05.614Z,25.23
2023-01-19T13:17:09.987Z,25.23
2023-01-19T13:19:14.320Z,25.21
2023-01-19T13:21:18.786Z,25.19
2023-01-19T13:23:23.156Z,25.2
2023-01-19T13:25:27.491Z,25.21
2023-01-19T13:27:31.939Z,25.19
2023-01-19T13:29:36.280Z,25.22
2023-01-19T13:31:40.707Z,25.19
2023-01-19T13:33:45.329Z,25.21
2023-01-19T13:35:49.759Z,25.18
2023-01-19T13:37:54.182Z,25.18
2023-01-19T13:39:58.759Z,25.13
2023-01-19T13:42:04.342Z,25.12
2023-01-19T13:44:09.012Z,25.13
2023-01-19T13:46:13.375Z,25.13
2023-01-19T13:48:17.902Z,25.1
2023-01-19T13:50:22.228Z,25.13
2023-01-19T13:52:26.680Z,25.18
2023-01-19T13:54:31.206Z,25.21
2023-01-19T13:56:35.561Z,25.2
2023-01-19T13:58:40.050Z,25.21
2023-01-19T14:00:44.576Z,25.21
2023-01-19T14:02:49.191Z,25.2
2023-01-19T14:04:53.928Z,25.21
2023-01-19T14:06:58.339Z,25.22
2023-01-19T14:09:02.679Z,25.18
2023-01-19T14:11:07.061Z,25.18
2023-01-19T14:13:11.592Z,25.17
2023-01-19T14:15:16.129Z,25.13
2023-01-19T14:17:20.659Z,25.12
2023-01-19T14:19:25.089Z,25.1
2023-01-19T14:21:29.738Z,25.12
2023-01-19T14:23:34.121Z,25.12
2023-01-19T14:25:38.510Z,25.07
2023-01-19T14:27:42.839Z,25.09
2023-01-19T14:29:47.198Z,25.06
2023-01-19T14:31:51.545Z,25.08
2023-01-19T14:33:55.897Z,25.06
2023-01-19T14:36:00.252Z,25.06
2023-01-19T14:38:04.613Z,25.05
2023-01-19T14:40:09.100Z,25.02
2023-01-19T14:42:13.857Z,25
2023-01-19T14:44:20.970Z,25
2023-01-19T14:46:25.368Z,24.99
2023-01-19T14:48:30.021Z,24.98
2023-01-19T14:50:34.372Z,24.98
2023-01-19T14:52:38.763Z,24.95
2023-01-19T14:54:43.096Z,24.94
2023-01-19T14:56:47.400Z,24.93
2023-01-19T14:58:51.754Z,24.91
2023-01-19T15:00:56.289Z,24.93
2023-01-19T15:03:00.998Z,24.93
2023-01-19T15:05:05.535Z,24.94
2023-01-19T15:07:10.836Z,24.95
2023-01-19T15:09:15.202Z,24.98
2023-01-19T15:11:19.572Z,24.95
2023-01-19T15:13:24.129Z,24.92
2023-01-19T15:15:28.885Z,24.89
2023-01-19T15:17:33.414Z,24.9
2023-01-19T15:19:37.775Z,24.87
2023-01-19T15:21:42.266Z,24.86
2023-01-19T15:23:46.675Z,24.8
2023-01-19T15:25:51.223Z,24.82
2023-01-19T15:27:55.590Z,24.82
2023-01-19T15:30:00.036Z,24.81
2023-01-19T15:32:04.593Z,24.82
2023-01-19T15:34:08.990Z,24.83
2023-01-19T15:36:13.316Z,24.81
2023-01-19T15:38:21.120Z,24.82
2023-01-19T15:40:25.654Z,24.84
2023-01-19T15:42:30.048Z,24.84
2023-01-19T15:44:34.427Z,24.87
2023-01-19T15:46:38.906Z,24.89
2023-01-19T15:48:43.429Z,24.91
2023-01-19T15:50:47.798Z,24.93
2023-01-19T15:52:52.224Z,24.94
2023-01-19T15:54:56.560Z,24.96
2023-01-19T15:57:00.964Z,24.98
2023-01-19T15:59:05.460Z,25
2023-01-19T16:01:09.909Z,25.03
2023-01-19T16:03:14.561Z,25.05
2023-01-19T16:05:18.925Z,25.07
2023-01-19T16:07:30.402Z,25.1
2023-01-19T16:09:34.887Z,25.12
2023-01-19T16:11:39.341Z,25.12
2023-01-19T16:13:43.747Z,25.16
2023-01-19T16:15:48.229Z,25.18
2023-01-19T16:17:52.566Z,25.19
2023-01-19T16:19:57.034Z,25.19
2023-01-19T16:22:01.547Z,25.19
2023-01-19T16:24:05.995Z,25.18
2023-01-19T16:26:10.374Z,25.2
2023-01-19T16:28:14.726Z,25.22
2023-01-19T16:30:19.100Z,25.22
2023-01-19T16:32:23.676Z,25.22
2023-01-19T16:34:28.099Z,25.26
2023-01-19T16:36:32.537Z,25.31
2023-01-19T16:38:36.919Z,25.3
2023-01-19T16:40:41.317Z,25.26
2023-01-19T16:42:45.704Z,25.32
2023-01-19T16:44:50.087Z,25.31
2023-01-19T16:46:54.531Z,25.34
2023-01-19T16:48:58.960Z,25.33
2023-01-19T16:51:03.456Z,25.32
2023-01-19T16:53:08.006Z,25.33
2023-01-19T16:55:12.441Z,25.31
2023-01-19T16:57:16.873Z,25.32
2023-01-19T16:59:21.339Z,25.28
2023-01-19T17:01:25.898Z,25.3
2023-01-19T17:03:30.756Z,25.31
2023-01-19T17:05:35.157Z,25.32
2023-01-19T17:07:39.763Z,25.35
2023-01-19T17:09:44.191Z,25.34
2023-01-19T17:11:48.566Z,25.33
2023-01-19T17:13:52.939Z,25.34
2023-01-19T17:15:57.361Z,25.34
2023-01-19T17:18:01.727Z,25.35
2023-01-19T17:20:06.087Z,25.36
2023-01-19T17:22:10.479Z,25.36
2023-01-19T17:24:14.841Z,25.37
2023-01-19T17:26:19.185Z,25.36
2023-01-19T17:28:23.527Z,25.37
2023-01-19T17:30:27.948Z,25.36
2023-01-19T17:32:32.859Z,25.34
2023-01-19T17:34:37.181Z,25.33
2023-01-19T17:36:41.581Z,25.3
2023-01-19T17:38:46.028Z,25.3
2023-01-19T17:40:50.329Z,25.35
2023-01-19T17:42:54.675Z,25.36
2023-01-19T17:44:59.005Z,25.32
2023-01-19T17:47:03.351Z,25.33
2023-01-19T17:49:07.779Z,25.32
2023-01-19T17:51:12.257Z,25.32
2023-01-19T17:53:16.635Z,25.33
2023-01-19T17:55:20.975Z,25.32
2023-01-19T17:57:25.326Z,25.33
2023-01-19T17:59:29.796Z,25.36
2023-01-19T18:01:34.224Z,25.36
2023-01-19T18:03:38.851Z,25.36
2023-01-19T18:05:43.226Z,25.39
2023-01-19T18:07:47.581Z,25.44
2023-01-19T18:09:51.950Z,25.48
2023-01-19T18:11:56.277Z,25.53
2023-01-19T18:14:00.666Z,25.55
2023-01-19T18:16:05.115Z,25.58
2023-01-19T18:18:10.028Z,25.63
2023-01-19T18:20:14.749Z,25.67
2023-01-19T18:22:19.318Z,25.72
2023-01-19T18:24:23.729Z,25.76
2023-01-19T18:26:28.064Z,25.75
2023-01-19T18:28:32.519Z,25.8
2023-01-19T18:30:36.926Z,25.82
2023-01-19T18:32:41.589Z,25.82
2023-01-19T18:34:45.949Z,25.87
2023-01-19T18:36:50.330Z,25.92
2023-01-19T18:38:54.713Z,25.95
2023-01-19T18:40:59.164Z,25.98
2023-01-19T18:43:03.551Z,25.97
2023-01-19T18:45:07.930Z,25.98
2023-01-19T18:47:12.283Z,25.99
2023-01-19T18:49:16.699Z,26.01
2023-01-19T18:51:21.118Z,26.01
2023-01-19T18:53:25.537Z,26.01
2023-01-19T18:55:29.905Z,25.97
2023-01-19T18:57:34.313Z,25.94
2023-01-19T18:59:38.688Z,25.95
2023-01-19T19:01:43.215Z,25.99
2023-01-19T19:03:48.052Z,25.98
2023-01-19T19:05:52.494Z,25.93
2023-01-19T19:07:57.119Z,25.9
2023-01-19T19:10:01.488Z,25.89
2023-01-19T19:12:06.078Z,25.89
2023-01-19T19:14:10.645Z,25.9
2023-01-19T19:16:15.101Z,25.9
2023-01-19T19:18:19.844Z,25.89
2023-01-19T19:20:24.177Z,25.88
2023-01-19T19:22:28.512Z,25.81
2023-01-19T19:24:33.006Z,25.79
2023-01-19T19:26:37.397Z,25.77
2023-01-19T19:28:41.701Z,25.78
2023-01-19T19:30:46.078Z,25.8
2023-01-19T19:32:50.726Z,25.84
2023-01-19T19:34:55.109Z,25.86
2023-01-19T19:37:01.156Z,25.89
2023-01-19T19:39:05.805Z,25.83
2023-01-19T19:41:10.195Z,25.84
2023-01-19T19:43:14.628Z,25.82
2023-01-19T19:45:19.089Z,25.8
2023-01-19T19:47:23.563Z,25.84
2023-01-19T19:49:28.016Z,25.84
2023-01-19T19:51:32.432Z,25.82
2023-01-19T19:53:36.855Z,25.79
2023-01-19T19:55:41.263Z,25.78
2023-01-19T19:57:45.838Z,25.77
2023-01-19T19:59:50.222Z,25.71
2023-01-19T20:01:54.685Z,25.73
2023-01-19T20:03:59.411Z,25.75
2023-01-19T20:06:03.739Z,25.78
2023-01-19T20:08:08.159Z,25.8
2023-01-19T20:10:12.727Z,25.77
2023-01-19T20:12:17.851Z,25.81
2023-01-19T20:14:22.278Z,25.8
2023-01-19T20:16:26.723Z,25.82
2023-01-19T20:18:31.495Z,25.84
2023-01-19T20:20:35.838Z,25.86
2023-01-19T20:22:40.243Z,25.87
2023-01-19T20:24:44.686Z,25.88
2023-01-19T20:26:49.055Z,25.91
2023-01-19T20:28:53.480Z,25.92
2023-01-19T20:30:57.978Z,25.92
2023-01-19T20:33:02.366Z,25.95
2023-01-19T20:35:06.770Z,25.96
2023-01-19T20:37:11.152Z,26
2023-01-19T20:39:15.618Z,26.02
2023-01-19T20:41:19.995Z,26.02
2023-01-19T20:43:24.499Z,26.01
2023-01-19T20:45:28.884Z,26.01
2023-01-19T20:47:33.451Z,26.04
2023-01-19T20:49:37.853Z,26.04
2023-01-19T20:51:42.250Z,26.01
2023-01-19T20:53:46.866Z,26.02
2023-01-19T20:55:51.341Z,26.04
2023-01-19T20:57:55.722Z,26.07
2023-01-19T21:00:00.138Z,26.11
2023-01-19T21:02:04.638Z,26.12
2023-01-19T21:04:09.251Z,26.13
2023-01-19T21:06:14.023Z,26.14
2023-01-19T21:08:18.389Z,26.14
2023-01-19T21:10:22.743Z,26.14
2023-01-19T21:12:27.181Z,26.14
2023-01-19T21:14:31.531Z,26.12
2023-01-19T21:16:35.976Z,26.06
2023-01-19T21:18:40.550Z,26.06
2023-01-19T21:20:44.962Z,26.06
2023-01-19T21:22:49.542Z,26.03
2023-01-19T21:24:53.878Z,26.05
2023-01-19T21:26:58.387Z,26.09
2023-01-19T21:29:02.881Z,25.97
2023-01-19T21:31:07.348Z,25.81
2023-01-19T21:33:11.737Z,25.58
2023-01-19T21:35:16.285Z,25.34
2023-01-19T21:37:20.568Z,25.16
2023-01-19T21:39:24.902Z,24.99
2023-01-19T21:41:29.360Z,24.83
2023-01-19T21:43:33.814Z,24.69
2023-01-19T21:45:38.241Z,24.58
2023-01-19T21:47:45.747Z,24.47
2023-01-19T21:49:50.078Z,24.4
2023-01-19T21:51:54.414Z,24.33
2023-01-19T21:53:58.787Z,24.23
2023-01-19T21:56:03.234Z,24.11
2023-01-19T21:58:07.577Z,24.03
2023-01-19T22:00:11.986Z,23.96
2023-01-19T22:02:23.891Z,23.89
2023-01-19T22:04:42.263Z,23.98
2023-01-19T22:06:46.673Z,24.03
2023-01-19T22:08:50.991Z,24.11
2023-01-19T22:10:55.414Z,24.19
2023-01-19T22:12:59.733Z,24.25
2023-01-19T22:15:04.043Z,24.31
2023-01-19T22:17:08.388Z,24.39
2023-01-19T22:19:12.760Z,24.45
2023-01-19T22:21:17.188Z,24.5
2023-01-19T22:23:21.583Z,24.58
2023-01-19T22:25:25.907Z,24.63
2023-01-19T22:27:30.370Z,24.67
2023-01-19T22:29:34.893Z,24.66
2023-01-19T22:31:39.405Z,24.7
2023-01-19T22:33:44.059Z,24.73
2023-01-19T22:35:48.377Z,24.76
2023-01-19T22:37:52.755Z,24.76
2023-01-19T22:39:57.269Z,24.78
2023-01-19T22:42:01.640Z,24.8
2023-01-19T22:44:06.079Z,24.82
2023-01-19T22:46:10.601Z,24.82
2023-01-19T22:48:15.233Z,24.83
2023-01-19T22:50:19.589Z,24.84
2023-01-19T22:52:23.909Z,24.86
2023-01-19T22:54:28.252Z,24.91
2023-01-19T22:56:32.569Z,24.9
2023-01-19T22:58:36.898Z,24.92
2023-01-19T23:00:41.273Z,24.91
2023-01-19T23:02:45.683Z,24.91
2023-01-19T23:04:50.026Z,24.88
2023-01-19T23:06:54.513Z,24.89
2023-01-19T23:08:59.039Z,24.88
2023-01-19T23:11:03.389Z,24.9
2023-01-19T23:13:07.773Z,24.89
2023-01-19T23:15:12.520Z,24.92
2023-01-19T23:17:17.786Z,24.92
2023-01-19T23:19:22.159Z,24.91
2023-01-19T23:21:26.483Z,24.94
2023-01-19T23:23:30.866Z,24.95
2023-01-19T23:25:35.271Z,24.93
2023-01-19T23:27:39.713Z,24.96
2023-01-19T23:29:44.187Z,24.97
2023-01-19T23:31:48.516Z,24.94
2023-01-19T23:33:52.864Z,24.97
2023-01-19T23:35:57.289Z,24.98
2023-01-19T23:38:01.617Z,24.99
2023-01-19T23:40:05.944Z,24.98
2023-01-19T23:42:10.286Z,25.02
2023-01-19T23:44:14.659Z,25.02
2023-01-19T23:46:19.110Z,25.01
2023-01-19T23:48:23.599Z,25.02
2023-01-19T23:50:27.997Z,25.02
2023-01-19T23:52:32.307Z,25.01
2023-01-19T23:54:36.661Z,25
2023-01-19T23:56:41.046Z,24.99
2023-01-19T23:58:45.410Z,25
